Ktima, Cyprus
Current Conditions -  °F | °C
As of 8:30 AM on Saturday 20 Dec 2014 (Local Time) from LCPH Reporting Station
Few Clouds Few Clouds  
Wind Chill: 12°   Ceiling: Unl
Heat Index: 12°   Visibility: 6mi
Dew Point:   Wind: 9mph
Humidity: 82%   Direction: 20°NNE
Pressure: 30.12"   Gusts: NA
Location:  34.76°N, 32.42°E
Report Text: LCPH 200530Z 02008KT 9999 FEW030CB 12/09 Q1020
Loading
Personal Weather Stations






























Interactive Weather Map New forecast layout! Learn more

10-Day Weather Forecast

Advertisements
Track Severe Weather on mobile